Mount Uniacke, Canada
Current Conditions -  °F | °C
As of 12:00 PM on Thursday 23 Oct 2014 (Local Time) from CYHZ Reporting Station
Light Rain Light Rain  
Wind Chill: 11°   Ceiling: 600
Heat Index: 11°   Visibility: 1.5mi
Dew Point: 10°   Wind: 12mph
Humidity: 94%   Direction: 80°E
Pressure: 30.02"   Gusts: 22mph
Location:  44.88°N, 63.83°W
Report Text: CYHZ 231500Z 08010G19KT 1 1/2SM -RA BR BKN006 OVC012 11/10 A3002 RMK SF6SC2 SLP169
Loading
Personal Weather Stations






























Interactive Weather Map
Tropical Storm Tracking
New forecast layout! Learn more

10-Day Weather Forecast

Advertisements
Track Severe Weather on mobile